CPX667 Details

Departure: Daytona Beach International Airport (KDAB)
Arrival: Miami International Airport (KMIA)
Route: MYRA V3 MLB V437 PHK V267 BRIKL


Current Weather Information
KDAB 200853Z 36015KT 10SM BKN021 OVC028 16/14 A3007 RMK AO2 SLP181 60001 T01610139 55013
KMIA 200853Z 33007KT 10SM BKN004 BKN031 OVC050 18/18 A2995 RMK AO2 RAE02 SLP143 P0000 60000 T01830183 56014